LiveATC.Net - Listen to live air traffic control over the Internet! Contact LiveATC.net for advertising information


ICAO: KGSP  IATA: GSP   Airport: Greenville Spartanburg International Airport
City: Greer   State/Province: South Carolina
Country: United States   Continent: North America
KGSP METAR Weather: KGSP 222253Z 17005KT 10SM CLR 23/06 A3019 RMK AO2 SLP218 T02330056
KGSP Flight Activity (FlightAware)
KGSP Airport Info   (AirNav) (iFlightPlanner)
KGSP Approach
Feed Status: DOWN
Last heard on: 2015-05-12 04:02:03 (10 days 19 hours 37 minutes ago)
KGSP Approach Audio Archives
FacilityFrequency
Greer Approach (East)119.400

Feed sponsored by: Extreme Media Productions

NOTICE

Unauthorized use prohibited. See LiveATC.net Terms of Service


Find LiveATC Audio Streams


Airport/ARTCC Code

Frequency
(e.g., 124.400, 128.75)
Site-wide search

Browse LiveATC Feeds
LiveATC Coverage Map
Top 50 LiveATC Feeds
Bad Weather Areas

LiveATC FAQ
Offer a LiveATC Feed
Contact LiveATC.net
Press Inquiries

LiveATC on iPhone
LiveATC on Android

LiveATC Mobile
(Mobile browser)

ATC Audio Archives
Interesting Recordings

LiveATC Forums


Home Page
About LiveATC.net
Make a Donation
LiveATC Bookstore

Terms of Use
Privacy Policy

ATC/Radar Sites
U.S. ARTCC Freqs
Canadian Air Freqs

AIRMETs/SIGMETs

FAA Airport Status
Nat'l Airspace Status
Arrival Demand Charts


Server Software By:
Icecast.org
Liquidsoap

Please make a donation to help us keep growing!